sensor_id;sensor_type;location;lat;lon;timestamp;temperature;humidity
1347;DHT22;667;48.796;9.480;2023-04-01T00:02:17;12.20;73.30
1347;DHT22;667;48.796;9.480;2023-04-01T00:04:43;12.20;73.30
1347;DHT22;667;48.796;9.480;2023-04-01T00:07:08;12.20;73.30
1347;DHT22;667;48.796;9.480;2023-04-01T00:09:34;12.20;73.20
1347;DHT22;667;48.796;9.480;2023-04-01T00:12:00;12.20;73.20
1347;DHT22;667;48.796;9.480;2023-04-01T00:14:26;12.10;73.20
1347;DHT22;667;48.796;9.480;2023-04-01T00:16:51;12.10;73.50
1347;DHT22;667;48.796;9.480;2023-04-01T00:19:18;12.10;73.50
1347;DHT22;667;48.796;9.480;2023-04-01T00:21:43;12.10;73.60
1347;DHT22;667;48.796;9.480;2023-04-01T00:24:09;12.10;73.80
1347;DHT22;667;48.796;9.480;2023-04-01T00:26:35;12.10;74.00
1347;DHT22;667;48.796;9.480;2023-04-01T00:29:00;12.10;74.10
1347;DHT22;667;48.796;9.480;2023-04-01T00:31:26;12.10;74.20
1347;DHT22;667;48.796;9.480;2023-04-01T00:33:52;12.10;74.30
1347;DHT22;667;48.796;9.480;2023-04-01T00:36:20;12.10;74.20
1347;DHT22;667;48.796;9.480;2023-04-01T00:38:47;12.10;74.20
1347;DHT22;667;48.796;9.480;2023-04-01T00:41:18;12.10;74.30
1347;DHT22;667;48.796;9.480;2023-04-01T00:43:47;12.10;74.40
1347;DHT22;667;48.796;9.480;2023-04-01T00:46:13;12.10;74.40
1347;DHT22;667;48.796;9.480;2023-04-01T00:48:43;12.10;74.30
1347;DHT22;667;48.796;9.480;2023-04-01T00:51:17;12.10;74.40
1347;DHT22;667;48.796;9.480;2023-04-01T00:53:47;12.10;74.30
1347;DHT22;667;48.796;9.480;2023-04-01T00:56:17;12.10;74.30
1347;DHT22;667;48.796;9.480;2023-04-01T00:58:47;12.10;74.30
1347;DHT22;667;48.796;9.480;2023-04-01T01:01:14;12.10;74.40
1347;DHT22;667;48.796;9.480;2023-04-01T01:03:40;12.00;74.30
1347;DHT22;667;48.796;9.480;2023-04-01T01:11:29;12.00;74.80
1347;DHT22;667;48.796;9.480;2023-04-01T01:16:45;12.00;75.00
1347;DHT22;667;48.796;9.480;2023-04-01T01:22:12;12.00;75.30
1347;DHT22;667;48.796;9.480;2023-04-01T01:27:21;12.00;75.70
1347;DHT22;667;48.796;9.480;2023-04-01T01:33:13;12.00;76.10
1347;DHT22;667;48.796;9.480;2023-04-01T01:35:40;12.00;76.40
1347;DHT22;667;48.796;9.480;2023-04-01T01:38:13;12.00;76.70
1347;DHT22;667;48.796;9.480;2023-04-01T01:40:43;12.00;76.80
1347;DHT22;667;48.796;9.480;2023-04-01T01:43:12;12.00;76.70
1347;DHT22;667;48.796;9.480;2023-04-01T01:45:46;12.00;76.70
1347;DHT22;667;48.796;9.480;2023-04-01T01:48:13;12.00;76.60
1347;DHT22;667;48.796;9.480;2023-04-01T01:50:41;12.00;76.60
1347;DHT22;667;48.796;9.480;2023-04-01T01:53:10;11.90;76.40
1347;DHT22;667;48.796;9.480;2023-04-01T01:55:41;11.90;76.40
1347;DHT22;667;48.796;9.480;2023-04-01T01:58:25;11.90;76.40
1347;DHT22;667;48.796;9.480;2023-04-01T02:01:01;11.90;76.50
1347;DHT22;667;48.796;9.480;2023-04-01T02:03:30;11.90;76.70
1347;DHT22;667;48.796;9.480;2023-04-01T02:05:59;11.90;76.70
1347;DHT22;667;48.796;9.480;2023-04-01T02:08:42;11.90;76.80
1347;DHT22;667;48.796;9.480;2023-04-01T02:11:11;11.90;76.90
1347;DHT22;667;48.796;9.480;2023-04-01T02:13:45;11.90;76.90
1347;DHT22;667;48.796;9.480;2023-04-01T02:16:20;11.90;77.00
1347;DHT22;667;48.796;9.480;2023-04-01T02:18:50;11.90;77.10
1347;DHT22;667;48.796;9.480;2023-04-01T02:21:20;11.90;77.10
1347;DHT22;667;48.796;9.480;2023-04-01T02:23:47;11.90;77.10
1347;DHT22;667;48.796;9.480;2023-04-01T02:26:14;11.90;77.00
1347;DHT22;667;48.796;9.480;2023-04-01T02:28:41;11.90;77.00
1347;DHT22;667;48.796;9.480;2023-04-01T02:31:10;11.80;76.80
1347;DHT22;667;48.796;9.480;2023-04-01T02:33:37;11.80;76.70
1347;DHT22;667;48.796;9.480;2023-04-01T02:36:04;11.80;76.40
1347;DHT22;667;48.796;9.480;2023-04-01T02:38:30;11.80;76.00
1347;DHT22;667;48.796;9.480;2023-04-01T02:41:00;11.70;76.20
1347;DHT22;667;48.796;9.480;2023-04-01T02:43:27;11.70;76.20
1347;DHT22;667;48.796;9.480;2023-04-01T02:45:53;11.80;76.10
1347;DHT22;667;48.796;9.480;2023-04-01T02:48:19;11.70;75.90
1347;DHT22;667;48.796;9.480;2023-04-01T02:50:45;11.70;75.80
1347;DHT22;667;48.796;9.480;2023-04-01T02:53:11;11.70;75.60
1347;DHT22;667;48.796;9.480;2023-04-01T02:55:37;11.70;75.20
1347;DHT22;667;48.796;9.480;2023-04-01T02:58:03;11.70;75.10
1347;DHT22;667;48.796;9.480;2023-04-01T03:00:28;11.70;75.00
1347;DHT22;667;48.796;9.480;2023-04-01T03:02:54;11.70;74.70
1347;DHT22;667;48.796;9.480;2023-04-01T03:05:20;11.70;74.50
1347;DHT22;667;48.796;9.480;2023-04-01T03:07:46;11.60;74.50
1347;DHT22;667;48.796;9.480;2023-04-01T03:10:12;11.60;74.60
1347;DHT22;667;48.796;9.480;2023-04-01T03:12:37;11.60;74.70
1347;DHT22;667;48.796;9.480;2023-04-01T03:15:03;11.60;74.60
1347;DHT22;667;48.796;9.480;2023-04-01T03:17:29;11.60;74.50
1347;DHT22;667;48.796;9.480;2023-04-01T03:19:55;11.60;74.50
1347;DHT22;667;48.796;9.480;2023-04-01T03:22:20;11.50;74.30
1347;DHT22;667;48.796;9.480;2023-04-01T03:24:48;11.60;74.40
1347;DHT22;667;48.796;9.480;2023-04-01T03:27:14;11.50;74.30
1347;DHT22;667;48.796;9.480;2023-04-01T03:29:39;11.60;74.30
1347;DHT22;667;48.796;9.480;2023-04-01T03:32:05;11.50;74.20
1347;DHT22;667;48.796;9.480;2023-04-01T03:34:31;11.50;74.00
1347;DHT22;667;48.796;9.480;2023-04-01T03:36:57;11.60;74.20
1347;DHT22;667;48.796;9.480;2023-04-01T03:39:22;11.50;74.20
1347;DHT22;667;48.796;9.480;2023-04-01T03:41:48;11.60;74.20
1347;DHT22;667;48.796;9.480;2023-04-01T03:44:14;11.60;74.00
1347;DHT22;667;48.796;9.480;2023-04-01T03:46:39;11.50;73.90
1347;DHT22;667;48.796;9.480;2023-04-01T03:49:11;11.50;73.50
1347;DHT22;667;48.796;9.480;2023-04-01T03:51:42;11.50;73.50
1347;DHT22;667;48.796;9.480;2023-04-01T03:54:09;11.50;73.50
1347;DHT22;667;48.796;9.480;2023-04-01T03:56:35;11.60;73.60
1347;DHT22;667;48.796;9.480;2023-04-01T03:59:06;11.60;73.60
1347;DHT22;667;48.796;9.480;2023-04-01T04:01:32;11.60;73.40
1347;DHT22;667;48.796;9.480;2023-04-01T04:03:57;11.50;73.30
1347;DHT22;667;48.796;9.480;2023-04-01T04:06:23;11.50;73.40
1347;DHT22;667;48.796;9.480;2023-04-01T04:08:49;11.50;73.40
1347;DHT22;667;48.796;9.480;2023-04-01T04:11:15;11.60;73.50
1347;DHT22;667;48.796;9.480;2023-04-01T04:13:41;11.50;73.10
1347;DHT22;667;48.796;9.480;2023-04-01T04:16:08;11.60;73.10
1347;DHT22;667;48.796;9.480;2023-04-01T04:18:35;11.50;72.80
1347;DHT22;667;48.796;9.480;2023-04-01T04:21:02;11.50;72.60
1347;DHT22;667;48.796;9.480;2023-04-01T04:23:28;11.50;72.60
1347;DHT22;667;48.796;9.480;2023-04-01T04:26:03;11.50;72.60
1347;DHT22;667;48.796;9.480;2023-04-01T04:28:29;11.50;72.60
1347;DHT22;667;48.796;9.480;2023-04-01T04:30:55;11.40;72.50
1347;DHT22;667;48.796;9.480;2023-04-01T04:33:22;11.40;72.20
1347;DHT22;667;48.796;9.480;2023-04-01T04:35:48;11.40;72.30
1347;DHT22;667;48.796;9.480;2023-04-01T04:38:13;11.40;72.10
1347;DHT22;667;48.796;9.480;2023-04-01T04:40:41;11.40;72.10
1347;DHT22;667;48.796;9.480;2023-04-01T04:43:07;11.40;72.10
1347;DHT22;667;48.796;9.480;2023-04-01T04:45:35;11.30;72.20
1347;DHT22;667;48.796;9.480;2023-04-01T04:48:00;11.30;72.30
1347;DHT22;667;48.796;9.480;2023-04-01T04:50:26;11.30;72.50
1347;DHT22;667;48.796;9.480;2023-04-01T04:52:51;11.30;72.60
1347;DHT22;667;48.796;9.480;2023-04-01T04:55:17;11.30;72.60
1347;DHT22;667;48.796;9.480;2023-04-01T04:57:43;11.30;72.60
1347;DHT22;667;48.796;9.480;2023-04-01T05:00:09;11.30;72.60
1347;DHT22;667;48.796;9.480;2023-04-01T05:02:38;11.30;72.90
1347;DHT22;667;48.796;9.480;2023-04-01T05:05:04;11.30;72.90
1347;DHT22;667;48.796;9.480;2023-04-01T05:07:29;11.30;72.90
1347;DHT22;667;48.796;9.480;2023-04-01T05:09:55;11.30;72.80
1347;DHT22;667;48.796;9.480;2023-04-01T05:12:21;11.30;72.90
1347;DHT22;667;48.796;9.480;2023-04-01T05:14:46;11.30;73.00
1347;DHT22;667;48.796;9.480;2023-04-01T05:17:12;11.30;72.90
1347;DHT22;667;48.796;9.480;2023-04-01T05:19:38;11.30;73.00
1347;DHT22;667;48.796;9.480;2023-04-01T05:22:05;11.30;72.90
1347;DHT22;667;48.796;9.480;2023-04-01T05:24:31;11.40;72.90
1347;DHT22;667;48.796;9.480;2023-04-01T05:26:57;11.40;72.90
1347;DHT22;667;48.796;9.480;2023-04-01T05:29:24;11.40;73.00
1347;DHT22;667;48.796;9.480;2023-04-01T05:31:50;11.40;73.10
1347;DHT22;667;48.796;9.480;2023-04-01T05:34:16;11.40;73.00
1347;DHT22;667;48.796;9.480;2023-04-01T05:36:42;11.40;73.10
1347;DHT22;667;48.796;9.480;2023-04-01T05:39:08;11.40;73.20
1347;DHT22;667;48.796;9.480;2023-04-01T05:41:37;11.40;73.10
1347;DHT22;667;48.796;9.480;2023-04-01T05:44:04;11.40;73.20
1347;DHT22;667;48.796;9.480;2023-04-01T05:46:30;11.40;73.10
1347;DHT22;667;48.796;9.480;2023-04-01T05:48:56;11.30;73.00
1347;DHT22;667;48.796;9.480;2023-04-01T05:51:22;11.40;73.30
1347;DHT22;667;48.796;9.480;2023-04-01T05:53:47;11.30;73.30
1347;DHT22;667;48.796;9.480;2023-04-01T05:56:13;11.40;73.30
1347;DHT22;667;48.796;9.480;2023-04-01T05:58:39;11.40;73.20
1347;DHT22;667;48.796;9.480;2023-04-01T06:01:10;11.40;73.10
1347;DHT22;667;48.796;9.480;2023-04-01T06:03:36;11.40;73.10
1347;DHT22;667;48.796;9.480;2023-04-01T06:06:02;11.40;73.00
1347;DHT22;667;48.796;9.480;2023-04-01T06:08:31;11.50;72.90
1347;DHT22;667;48.796;9.480;2023-04-01T06:21:51;11.60;72.70
1347;DHT22;667;48.796;9.480;2023-04-01T06:38:28;11.90;72.00
1347;DHT22;667;48.796;9.480;2023-04-01T06:43:59;12.00;72.00
1347;DHT22;667;48.796;9.480;2023-04-01T06:52:08;12.10;70.90
1347;DHT22;667;48.796;9.480;2023-04-01T06:54:42;12.10;70.50
1347;DHT22;667;48.796;9.480;2023-04-01T07:00:02;12.20;70.30
1347;DHT22;667;48.796;9.480;2023-04-01T07:02:43;12.20;70.30
1347;DHT22;667;48.796;9.480;2023-04-01T07:05:11;12.20;70.30
1347;DHT22;667;48.796;9.480;2023-04-01T07:07:42;12.20;70.00
1347;DHT22;667;48.796;9.480;2023-04-01T07:13:07;12.20;70.10
1347;DHT22;667;48.796;9.480;2023-04-01T07:15:43;12.20;69.80
1347;DHT22;667;48.796;9.480;2023-04-01T07:18:18;12.20;69.80
1347;DHT22;667;48.796;9.480;2023-04-01T07:20:46;12.20;69.90
1347;DHT22;667;48.796;9.480;2023-04-01T07:23:31;12.20;70.00
1347;DHT22;667;48.796;9.480;2023-04-01T07:26:07;12.20;70.20
1347;DHT22;667;48.796;9.480;2023-04-01T07:28:36;12.20;70.30
1347;DHT22;667;48.796;9.480;2023-04-01T07:34:18;12.30;70.40
1347;DHT22;667;48.796;9.480;2023-04-01T07:36:44;12.30;70.40
1347;DHT22;667;48.796;9.480;2023-04-01T07:41:49;12.30;70.30
1347;DHT22;667;48.796;9.480;2023-04-01T07:44:29;12.40;70.40
1347;DHT22;667;48.796;9.480;2023-04-01T07:50:15;12.40;70.00
1347;DHT22;667;48.796;9.480;2023-04-01T08:01:10;12.60;70.50
1347;DHT22;667;48.796;9.480;2023-04-01T08:06:25;12.60;69.80
1347;DHT22;667;48.796;9.480;2023-04-01T08:23:33;12.70;70.30
1347;DHT22;667;48.796;9.480;2023-04-01T08:26:25;12.60;69.60
1347;DHT22;667;48.796;9.480;2023-04-01T08:29:02;12.70;69.50
1347;DHT22;667;48.796;9.480;2023-04-01T08:31:31;12.70;69.80
1347;DHT22;667;48.796;9.480;2023-04-01T08:33:58;12.70;69.80
1347;DHT22;667;48.796;9.480;2023-04-01T08:36:35;12.70;69.50
1347;DHT22;667;48.796;9.480;2023-04-01T08:39:07;12.70;69.60
1347;DHT22;667;48.796;9.480;2023-04-01T08:41:50;12.80;69.70
1347;DHT22;667;48.796;9.480;2023-04-01T08:57:25;12.80;70.60
1347;DHT22;667;48.796;9.480;2023-04-01T09:16:30;12.60;73.50
1347;DHT22;667;48.796;9.480;2023-04-01T09:22:10;12.60;75.20
1347;DHT22;667;48.796;9.480;2023-04-01T09:27:35;12.50;75.70
1347;DHT22;667;48.796;9.480;2023-04-01T09:36:21;12.50;76.30
1347;DHT22;667;48.796;9.480;2023-04-01T09:41:48;12.50;76.30
1347;DHT22;667;48.796;9.480;2023-04-01T09:44:34;12.50;76.20
1347;DHT22;667;48.796;9.480;2023-04-01T09:47:16;12.50;76.50
1347;DHT22;667;48.796;9.480;2023-04-01T09:52:29;12.60;76.50
1347;DHT22;667;48.796;9.480;2023-04-01T10:11:43;12.60;75.10
1347;DHT22;667;48.796;9.480;2023-04-01T10:22:42;12.60;75.90
1347;DHT22;667;48.796;9.480;2023-04-01T10:50:14;12.60;75.80
1347;DHT22;667;48.796;9.480;2023-04-01T10:53:03;12.60;75.20
1347;DHT22;667;48.796;9.480;2023-04-01T10:56:01;12.60;74.90
1347;DHT22;667;48.796;9.480;2023-04-01T11:23:01;12.60;76.50
1347;DHT22;667;48.796;9.480;2023-04-01T11:28:30;12.50;76.90
1347;DHT22;667;48.796;9.480;2023-04-01T11:34:02;12.50;77.20
1347;DHT22;667;48.796;9.480;2023-04-01T11:36:39;12.50;77.00
1347;DHT22;667;48.796;9.480;2023-04-01T11:39:50;12.50;78.00
1347;DHT22;667;48.796;9.480;2023-04-01T11:48:03;12.60;77.90
1347;DHT22;667;48.796;9.480;2023-04-01T11:50:49;12.60;77.50
1347;DHT22;667;48.796;9.480;2023-04-01T11:53:55;12.70;77.30
1347;DHT22;667;48.796;9.480;2023-04-01T11:57:22;12.70;76.00
1347;DHT22;667;48.796;9.480;2023-04-01T12:13:48;12.80;75.00
1347;DHT22;667;48.796;9.480;2023-04-01T12:21:38;12.80;73.90
1347;DHT22;667;48.796;9.480;2023-04-01T12:30:14;12.90;72.90
1347;DHT22;667;48.796;9.480;2023-04-01T12:36:18;12.90;73.50
1347;DHT22;667;48.796;9.480;2023-04-01T12:44:41;12.90;74.70
1347;DHT22;667;48.796;9.480;2023-04-01T12:47:31;12.90;74.70
1347;DHT22;667;48.796;9.480;2023-04-01T12:50:23;12.90;74.80
1347;DHT22;667;48.796;9.480;2023-04-01T12:53:17;12.90;75.10
1347;DHT22;667;48.796;9.480;2023-04-01T12:55:48;13.00;75.60
1347;DHT22;667;48.796;9.480;2023-04-01T12:58:57;13.00;75.50
1347;DHT22;667;48.796;9.480;2023-04-01T13:01:43;13.00;75.90
1347;DHT22;667;48.796;9.480;2023-04-01T13:07:34;13.00;76.30
1347;DHT22;667;48.796;9.480;2023-04-01T13:23:32;13.20;74.10
1347;DHT22;667;48.796;9.480;2023-04-01T13:34:17;13.10;71.50
1347;DHT22;667;48.796;9.480;2023-04-01T13:44:39;13.20;70.20
1347;DHT22;667;48.796;9.480;2023-04-01T13:52:48;13.10;70.30
1347;DHT22;667;48.796;9.480;2023-04-01T13:55:59;13.10;69.70
1347;DHT22;667;48.796;9.480;2023-04-01T13:59:37;13.20;69.80
1347;DHT22;667;48.796;9.480;2023-04-01T14:02:21;13.20;69.60
1347;DHT22;667;48.796;9.480;2023-04-01T14:13:39;13.20;68.80
1347;DHT22;667;48.796;9.480;2023-04-01T14:16:41;13.20;68.90
1347;DHT22;667;48.796;9.480;2023-04-01T14:19:22;13.20;69.00
1347;DHT22;667;48.796;9.480;2023-04-01T14:24:52;13.20;68.90
1347;DHT22;667;48.796;9.480;2023-04-01T14:36:43;13.20;69.70
1347;DHT22;667;48.796;9.480;2023-04-01T14:47:51;13.20;69.90
1347;DHT22;667;48.796;9.480;2023-04-01T14:50:23;13.10;70.10
1347;DHT22;667;48.796;9.480;2023-04-01T14:55:58;13.10;71.00
1347;DHT22;667;48.796;9.480;2023-04-01T14:58:24;13.10;71.50
1347;DHT22;667;48.796;9.480;2023-04-01T15:01:06;13.10;71.80
1347;DHT22;667;48.796;9.480;2023-04-01T15:14:29;13.00;74.30
1347;DHT22;667;48.796;9.480;2023-04-01T15:17:14;13.00;74.40
1347;DHT22;667;48.796;9.480;2023-04-01T15:20:14;13.00;74.20
1347;DHT22;667;48.796;9.480;2023-04-01T15:30:57;13.00;75.00
1347;DHT22;667;48.796;9.480;2023-04-01T15:33:49;12.90;74.30
1347;DHT22;667;48.796;9.480;2023-04-01T15:39:00;12.90;72.80
1347;DHT22;667;48.796;9.480;2023-04-01T15:41:46;12.80;72.20
1347;DHT22;667;48.796;9.480;2023-04-01T15:55:50;12.80;71.40
1347;DHT22;667;48.796;9.480;2023-04-01T16:01:15;12.90;71.50
1347;DHT22;667;48.796;9.480;2023-04-01T16:07:08;12.90;70.70
1347;DHT22;667;48.796;9.480;2023-04-01T16:23:59;12.90;69.90
1347;DHT22;667;48.796;9.480;2023-04-01T16:26:36;12.90;70.10
1347;DHT22;667;48.796;9.480;2023-04-01T16:37:38;12.90;69.10
1347;DHT22;667;48.796;9.480;2023-04-01T16:48:45;12.90;68.50
1347;DHT22;667;48.796;9.480;2023-04-01T16:51:16;12.90;68.80
1347;DHT22;667;48.796;9.480;2023-04-01T16:53:47;12.90;69.10
1347;DHT22;667;48.796;9.480;2023-04-01T16:56:20;13.00;69.30
1347;DHT22;667;48.796;9.480;2023-04-01T17:01:31;13.00;69.10
1347;DHT22;667;48.796;9.480;2023-04-01T17:04:12;13.00;69.40
1347;DHT22;667;48.796;9.480;2023-04-01T17:15:32;13.00;70.30
1347;DHT22;667;48.796;9.480;2023-04-01T17:18:05;12.90;70.60
1347;DHT22;667;48.796;9.480;2023-04-01T17:20:55;12.90;70.90
1347;DHT22;667;48.796;9.480;2023-04-01T17:23:38;12.90;71.10
1347;DHT22;667;48.796;9.480;2023-04-01T17:29:23;12.90;71.50
1347;DHT22;667;48.796;9.480;2023-04-01T17:35:12;12.90;71.80
1347;DHT22;667;48.796;9.480;2023-04-01T17:45:56;12.90;72.10
1347;DHT22;667;48.796;9.480;2023-04-01T17:56:49;12.90;73.60
1347;DHT22;667;48.796;9.480;2023-04-01T17:59:44;12.90;73.30
1347;DHT22;667;48.796;9.480;2023-04-01T18:08:15;12.90;73.70
1347;DHT22;667;48.796;9.480;2023-04-01T18:11:05;12.90;73.60
1347;DHT22;667;48.796;9.480;2023-04-01T18:18:54;12.80;73.80
1347;DHT22;667;48.796;9.480;2023-04-01T18:27:48;12.80;73.80
1347;DHT22;667;48.796;9.480;2023-04-01T18:32:48;12.80;74.20
1347;DHT22;667;48.796;9.480;2023-04-01T18:40:48;12.80;75.00
1347;DHT22;667;48.796;9.480;2023-04-01T18:46:00;12.80;76.20
1347;DHT22;667;48.796;9.480;2023-04-01T18:48:49;12.70;76.50
1347;DHT22;667;48.796;9.480;2023-04-01T18:51:21;12.70;77.00
1347;DHT22;667;48.796;9.480;2023-04-01T18:59:53;12.60;77.70
1347;DHT22;667;48.796;9.480;2023-04-01T19:02:37;12.60;78.10
1347;DHT22;667;48.796;9.480;2023-04-01T19:20:42;12.40;76.80
1347;DHT22;667;48.796;9.480;2023-04-01T19:25:55;12.40;76.00
1347;DHT22;667;48.796;9.480;2023-04-01T19:28:45;12.30;75.60
1347;DHT22;667;48.796;9.480;2023-04-01T19:36:46;12.20;73.40
1347;DHT22;667;48.796;9.480;2023-04-01T19:39:26;12.20;73.20
1347;DHT22;667;48.796;9.480;2023-04-01T19:52:40;12.10;72.50
1347;DHT22;667;48.796;9.480;2023-04-01T19:55:29;12.10;72.40
1347;DHT22;667;48.796;9.480;2023-04-01T20:01:10;12.00;72.50
1347;DHT22;667;48.796;9.480;2023-04-01T20:03:35;12.00;72.60
1347;DHT22;667;48.796;9.480;2023-04-01T20:11:26;12.00;73.20
1347;DHT22;667;48.796;9.480;2023-04-01T20:14:06;12.00;72.60
1347;DHT22;667;48.796;9.480;2023-04-01T20:19:42;12.00;72.60
1347;DHT22;667;48.796;9.480;2023-04-01T20:25:24;12.00;73.00
1347;DHT22;667;48.796;9.480;2023-04-01T20:28:21;12.10;73.20
1347;DHT22;667;48.796;9.480;2023-04-01T20:44:41;12.00;73.40
1347;DHT22;667;48.796;9.480;2023-04-01T20:47:21;12.00;73.40
1347;DHT22;667;48.796;9.480;2023-04-01T20:49:54;12.00;73.40
1347;DHT22;667;48.796;9.480;2023-04-01T20:52:25;12.00;73.50
1347;DHT22;667;48.796;9.480;2023-04-01T20:55:17;12.00;73.60
1347;DHT22;667;48.796;9.480;2023-04-01T21:00:49;12.00;73.90
1347;DHT22;667;48.796;9.480;2023-04-01T21:11:46;12.00;74.10
1347;DHT22;667;48.796;9.480;2023-04-01T21:25:30;11.90;74.90
1347;DHT22;667;48.796;9.480;2023-04-01T21:28:04;11.90;75.00
1347;DHT22;667;48.796;9.480;2023-04-01T21:30:35;11.90;75.20
1347;DHT22;667;48.796;9.480;2023-04-01T21:33:32;11.90;75.30
1347;DHT22;667;48.796;9.480;2023-04-01T21:36:08;11.90;75.30
1347;DHT22;667;48.796;9.480;2023-04-01T21:47:42;11.90;75.80
1347;DHT22;667;48.796;9.480;2023-04-01T21:53:39;11.90;75.90
1347;DHT22;667;48.796;9.480;2023-04-01T21:56:39;11.90;76.00
1347;DHT22;667;48.796;9.480;2023-04-01T21:59:38;11.90;76.10
1347;DHT22;667;48.796;9.480;2023-04-01T22:07:35;11.90;76.30
1347;DHT22;667;48.796;9.480;2023-04-01T22:10:48;11.80;76.30
1347;DHT22;667;48.796;9.480;2023-04-01T22:24:47;11.80;76.20
1347;DHT22;667;48.796;9.480;2023-04-01T22:27:35;11.80;76.20
1347;DHT22;667;48.796;9.480;2023-04-01T22:30:31;11.80;76.20
1347;DHT22;667;48.796;9.480;2023-04-01T22:44:33;11.70;75.90
1347;DHT22;667;48.796;9.480;2023-04-01T22:47:18;11.80;75.80
1347;DHT22;667;48.796;9.480;2023-04-01T22:49:57;11.80;75.60
1347;DHT22;667;48.796;9.480;2023-04-01T22:54:53;11.80;75.30
1347;DHT22;667;48.796;9.480;2023-04-01T22:57:37;11.80;75.20
1347;DHT22;667;48.796;9.480;2023-04-01T23:00:37;11.90;75.30
1347;DHT22;667;48.796;9.480;2023-04-01T23:05:52;11.80;75.10
1347;DHT22;667;48.796;9.480;2023-04-01T23:11:41;11.90;75.50
1347;DHT22;667;48.796;9.480;2023-04-01T23:22:44;11.90;75.90
1347;DHT22;667;48.796;9.480;2023-04-01T23:28:19;11.90;75.90
1347;DHT22;667;48.796;9.480;2023-04-01T23:30:49;11.80;75.80
1347;DHT22;667;48.796;9.480;2023-04-01T23:35:52;11.80;75.70
1347;DHT22;667;48.796;9.480;2023-04-01T23:38:20;11.80;75.60
1347;DHT22;667;48.796;9.480;2023-04-01T23:40:49;11.80;75.30
1347;DHT22;667;48.796;9.480;2023-04-01T23:43:31;11.90;75.20
1347;DHT22;667;48.796;9.480;2023-04-01T23:46:00;11.80;75.10
1347;DHT22;667;48.796;9.480;2023-04-01T23:48:38;11.80;74.80
1347;DHT22;667;48.796;9.480;2023-04-01T23:51:17;11.80;74.60
1347;DHT22;667;48.796;9.480;2023-04-01T23:53:47;11.80;74.50
1347;DHT22;667;48.796;9.480;2023-04-01T23:56:16;11.80;74.40
1347;DHT22;667;48.796;9.480;2023-04-01T23:58:43;11.80;74.20
